createdAt,value
2023-04-04T00:00:22.364Z,90.80
2023-04-04T00:02:50.063Z,90.90
2023-04-04T00:05:17.088Z,90.90
2023-04-04T00:07:47.327Z,90.70
2023-04-04T00:10:14.639Z,90.70
2023-04-04T00:12:43.087Z,90.60
2023-04-04T00:15:10.684Z,90.70
2023-04-04T00:17:37.619Z,90.60
2023-04-04T00:20:05.101Z,90.50
2023-04-04T00:22:32.156Z,90.60
2023-04-04T00:24:59.214Z,90.60
2023-04-04T00:27:26.304Z,90.60
2023-04-04T00:29:53.516Z,90.70
2023-04-04T00:32:20.786Z,90.70
2023-04-04T00:34:53.743Z,90.80
2023-04-04T00:37:21.444Z,91.10
2023-04-04T00:39:49.353Z,91.00
2023-04-04T00:42:16.395Z,91.00
2023-04-04T00:44:43.308Z,90.90
2023-04-04T00:47:10.231Z,91.30
2023-04-04T00:49:37.865Z,91.00
2023-04-04T00:52:07.315Z,91.00
2023-04-04T00:54:35.572Z,91.10
2023-04-04T00:57:04.185Z,91.10
2023-04-04T00:59:32.598Z,91.00
2023-04-04T01:02:00.742Z,91.30
2023-04-04T01:04:31.564Z,91.10
2023-04-04T01:06:59.662Z,91.00
2023-04-04T01:09:27.340Z,91.00
2023-04-04T01:11:56.787Z,91.00
2023-04-04T01:14:24.999Z,91.00
2023-04-04T01:16:52.393Z,91.00
2023-04-04T01:19:50.029Z,91.00
2023-04-04T01:22:21.413Z,91.10
2023-04-04T01:24:49.277Z,91.10
2023-04-04T01:27:16.702Z,91.40
2023-04-04T01:29:52.153Z,91.40
2023-04-04T01:32:23.280Z,91.50
2023-04-04T01:35:38.934Z,91.50
2023-04-04T01:38:23.423Z,91.80
2023-04-04T01:40:55.444Z,91.50
2023-04-04T01:43:23.551Z,91.70
2023-04-04T01:45:50.857Z,91.50
2023-04-04T01:48:18.776Z,91.40
2023-04-04T01:50:51.120Z,91.40
2023-04-04T01:53:18.154Z,91.50
2023-04-04T01:55:45.235Z,91.60
2023-04-04T01:58:12.381Z,91.80
2023-04-04T02:00:39.718Z,91.80
2023-04-04T02:03:06.844Z,91.80
2023-04-04T02:05:33.901Z,91.80
2023-04-04T02:08:01.547Z,92.00
2023-04-04T02:10:40.383Z,92.00
2023-04-04T02:13:07.417Z,91.90
2023-04-04T02:15:35.509Z,91.80
2023-04-04T02:18:02.560Z,91.90
2023-04-04T02:20:29.789Z,91.80
2023-04-04T02:22:57.061Z,92.00
2023-04-04T02:25:25.428Z,91.70
2023-04-04T02:27:52.378Z,91.60
2023-04-04T02:30:20.730Z,91.60
2023-04-04T02:32:50.285Z,91.70
2023-04-04T02:35:19.577Z,91.70
2023-04-04T02:37:49.826Z,91.70
2023-04-04T02:40:23.824Z,91.60
2023-04-04T02:42:50.951Z,91.60
2023-04-04T02:45:18.216Z,91.50
2023-04-04T02:47:53.818Z,91.40
2023-04-04T02:50:26.315Z,91.40
2023-04-04T02:53:04.493Z,91.20
2023-04-04T02:55:34.199Z,91.30
2023-04-04T02:58:01.940Z,91.30
2023-04-04T03:00:29.122Z,91.30
2023-04-04T03:02:58.264Z,91.30
2023-04-04T03:05:35.410Z,91.30
2023-04-04T03:08:02.964Z,91.30
2023-04-04T03:10:30.454Z,91.30
2023-04-04T03:12:57.985Z,91.40
2023-04-04T03:15:27.590Z,91.40
2023-04-04T03:17:54.690Z,91.40
2023-04-04T03:20:26.315Z,91.70
2023-04-04T03:22:53.271Z,91.70
2023-04-04T03:25:20.887Z,91.80
2023-04-04T03:27:47.817Z,91.90
2023-04-04T03:30:21.196Z,92.00
2023-04-04T03:32:48.620Z,92.10
2023-04-04T03:35:16.250Z,92.10
2023-04-04T03:37:43.175Z,92.10
2023-04-04T03:40:10.612Z,92.00
2023-04-04T03:42:37.907Z,92.10
2023-04-04T03:45:09.627Z,92.20
2023-04-04T03:47:37.609Z,92.20
2023-04-04T03:50:04.913Z,92.10
2023-04-04T03:52:39.784Z,92.10
2023-04-04T03:55:10.273Z,92.40
2023-04-04T03:57:37.681Z,92.40
2023-04-04T04:00:09.745Z,92.40
2023-04-04T04:02:40.085Z,92.40
2023-04-04T04:05:09.306Z,92.40
2023-04-04T04:07:37.274Z,92.40
2023-04-04T04:10:05.432Z,92.40
2023-04-04T04:12:32.978Z,92.30
2023-04-04T04:14:59.890Z,92.40
2023-04-04T04:17:28.732Z,92.40
2023-04-04T04:19:56.339Z,92.40
2023-04-04T04:22:24.131Z,92.30
2023-04-04T04:24:51.227Z,92.40
2023-04-04T04:27:19.089Z,92.40
2023-04-04T04:29:46.243Z,92.40
2023-04-04T04:32:17.659Z,92.40
2023-04-04T04:34:49.053Z,92.50
2023-04-04T04:37:17.889Z,92.40
2023-04-04T04:39:50.541Z,92.30
2023-04-04T04:42:29.327Z,92.20
2023-04-04T04:44:59.358Z,92.30
2023-04-04T04:47:26.377Z,92.40
2023-04-04T04:49:53.312Z,92.40
2023-04-04T04:52:32.027Z,92.40
2023-04-04T04:54:59.068Z,92.50
2023-04-04T04:57:27.493Z,92.50
2023-04-04T04:59:56.017Z,92.60
2023-04-04T05:02:26.197Z,92.60
2023-04-04T05:04:53.123Z,92.60
2023-04-04T05:07:20.632Z,92.50
2023-04-04T05:09:48.923Z,92.60
2023-04-04T05:12:17.994Z,92.70
2023-04-04T05:14:47.915Z,92.70
2023-04-04T05:17:16.181Z,92.60
2023-04-04T05:19:43.639Z,92.60
2023-04-04T05:22:15.181Z,92.60
2023-04-04T05:24:48.958Z,92.60
2023-04-04T05:27:20.476Z,92.60
2023-04-04T05:29:53.765Z,92.50
2023-04-04T05:32:22.133Z,92.60
2023-04-04T05:34:57.677Z,92.50
2023-04-04T05:37:24.658Z,92.50
2023-04-04T05:39:51.915Z,92.50
2023-04-04T05:42:18.924Z,92.40
2023-04-04T05:44:50.306Z,92.50
2023-04-04T05:47:18.313Z,92.60
2023-04-04T05:49:47.923Z,92.70
2023-04-04T05:52:14.865Z,92.70
2023-04-04T05:54:42.195Z,93.20
2023-04-04T05:57:15.212Z,92.90
2023-04-04T05:59:45.896Z,93.10
2023-04-04T06:02:15.264Z,93.10
2023-04-04T06:04:47.505Z,93.00
2023-04-04T06:07:20.281Z,93.00
2023-04-04T06:09:47.185Z,93.00
2023-04-04T06:12:14.070Z,93.20
2023-04-04T06:14:41.646Z,93.10
2023-04-04T06:17:09.529Z,93.30
2023-04-04T06:19:36.431Z,93.30
2023-04-04T06:22:03.479Z,93.40
2023-04-04T06:24:34.098Z,93.40
2023-04-04T06:27:02.670Z,93.60
2023-04-04T06:29:29.611Z,93.80
2023-04-04T06:31:59.462Z,93.50
2023-04-04T06:34:35.597Z,93.50
2023-04-04T06:37:03.496Z,93.40
2023-04-04T06:39:36.662Z,93.40
2023-04-04T06:42:08.522Z,93.30
2023-04-04T06:44:36.642Z,93.30
2023-04-04T06:47:03.870Z,93.20
2023-04-04T06:49:30.813Z,93.10
2023-04-04T06:51:58.735Z,93.00
2023-04-04T06:54:25.731Z,92.70
2023-04-04T06:56:53.159Z,92.50
2023-04-04T06:59:20.759Z,92.30
2023-04-04T07:01:47.675Z,92.20
2023-04-04T07:04:14.542Z,92.20
2023-04-04T07:06:42.193Z,92.10
2023-04-04T07:09:15.448Z,92.10
2023-04-04T07:11:49.115Z,92.10
2023-04-04T07:14:16.056Z,92.20
2023-04-04T07:16:43.452Z,92.20
2023-04-04T07:19:10.368Z,91.90
2023-04-04T07:21:37.326Z,91.90
2023-04-04T07:24:04.303Z,91.60
2023-04-04T07:26:31.513Z,91.30
2023-04-04T07:28:58.395Z,91.40
2023-04-04T07:31:25.317Z,91.20
2023-04-04T07:33:54.068Z,90.80
2023-04-04T07:36:21.299Z,90.10
2023-04-04T07:38:48.874Z,90.00
2023-04-04T07:41:15.906Z,89.00
2023-04-04T07:43:42.790Z,87.20
2023-04-04T07:46:09.692Z,85.80
2023-04-04T07:48:36.612Z,86.00
2023-04-04T07:51:04.763Z,84.80
2023-04-04T07:53:32.200Z,86.10
2023-04-04T07:55:59.111Z,86.10
2023-04-04T07:58:26.154Z,86.20
2023-04-04T08:00:53.109Z,85.40
2023-04-04T08:03:20.099Z,85.20
2023-04-04T08:05:47.182Z,85.40
2023-04-04T08:08:14.060Z,85.00
2023-04-04T08:10:41.184Z,84.90
2023-04-04T08:13:10.047Z,85.10
2023-04-04T08:15:37.522Z,84.70
2023-04-04T08:18:04.963Z,84.40
2023-04-04T08:20:31.978Z,83.10
2023-04-04T08:22:58.824Z,84.20
2023-04-04T08:25:25.682Z,83.10
2023-04-04T08:27:52.535Z,81.60
2023-04-04T08:30:19.482Z,82.10
2023-04-04T08:32:46.411Z,80.20
2023-04-04T08:35:13.583Z,81.00
2023-04-04T08:37:47.083Z,79.10
2023-04-04T08:40:14.606Z,77.80
2023-04-04T08:42:46.169Z,78.20
2023-04-04T08:45:17.159Z,76.20
2023-04-04T08:47:44.602Z,75.90
2023-04-04T08:50:12.195Z,74.90
2023-04-04T08:52:40.645Z,73.50
2023-04-04T08:55:08.469Z,74.20
2023-04-04T08:57:36.007Z,75.20
2023-04-04T09:00:06.224Z,74.00
2023-04-04T09:02:57.847Z,74.70
2023-04-04T09:05:25.687Z,71.30
2023-04-04T09:07:54.047Z,68.80
2023-04-04T09:10:21.453Z,68.50
2023-04-04T09:12:51.776Z,70.00
2023-04-04T09:15:18.737Z,68.80
2023-04-04T09:17:45.774Z,70.40
2023-04-04T09:20:35.823Z,67.70
2023-04-04T09:23:06.564Z,68.80
2023-04-04T09:25:33.868Z,68.90
2023-04-04T09:28:03.012Z,69.60
2023-04-04T09:30:29.878Z,70.00
2023-04-04T09:32:57.777Z,70.50
2023-04-04T09:35:27.292Z,68.30
2023-04-04T09:37:54.188Z,69.00
2023-04-04T09:40:23.962Z,69.00
2023-04-04T09:42:51.011Z,68.90
2023-04-04T09:45:29.405Z,68.90
2023-04-04T09:47:59.693Z,69.40
2023-04-04T09:50:28.877Z,68.00
2023-04-04T09:52:59.064Z,69.60
2023-04-04T09:55:38.442Z,69.10
2023-04-04T09:58:16.096Z,67.00
2023-04-04T10:00:48.452Z,67.60
2023-04-04T10:03:21.742Z,67.40
2023-04-04T10:06:01.317Z,67.20
2023-04-04T10:08:29.357Z,66.90
2023-04-04T10:13:37.143Z,67.80
2023-04-04T10:16:04.793Z,67.90
2023-04-04T10:18:34.697Z,68.40
2023-04-04T10:23:38.856Z,68.80
2023-04-04T10:26:06.214Z,69.60
2023-04-04T10:28:34.395Z,69.90
2023-04-04T10:31:09.990Z,69.90
2023-04-04T10:34:12.613Z,70.20
2023-04-04T10:36:49.290Z,71.10
2023-04-04T10:39:26.419Z,70.80
2023-04-04T10:41:53.790Z,70.70
2023-04-04T10:44:40.620Z,71.10
2023-04-04T10:47:17.407Z,71.10
2023-04-04T10:49:45.810Z,71.90
2023-04-04T10:52:24.447Z,72.30
2023-04-04T10:54:56.812Z,71.90
2023-04-04T10:57:24.135Z,71.50
2023-04-04T11:00:26.232Z,70.60
2023-04-04T11:02:53.067Z,70.90
2023-04-04T11:05:40.735Z,71.80
2023-04-04T11:08:10.916Z,71.70
2023-04-04T11:10:43.228Z,70.70
2023-04-04T11:13:23.578Z,67.60
2023-04-04T11:16:07.611Z,68.00
2023-04-04T11:18:43.698Z,69.30
2023-04-04T11:21:27.952Z,69.40
2023-04-04T11:23:54.696Z,68.30
2023-04-04T11:26:33.540Z,69.20
2023-04-04T11:29:02.844Z,69.20
2023-04-04T11:31:40.427Z,69.10
2023-04-04T11:34:10.196Z,68.80
2023-04-04T11:36:37.060Z,67.10
2023-04-04T11:39:06.769Z,67.00
2023-04-04T11:42:04.029Z,68.50
2023-04-04T11:44:33.344Z,68.10
2023-04-04T11:47:11.544Z,67.40
2023-04-04T11:49:41.595Z,66.90
2023-04-04T11:52:16.464Z,67.60
2023-04-04T11:54:46.674Z,66.70
2023-04-04T11:57:15.815Z,66.40
2023-04-04T11:59:48.554Z,66.10
2023-04-04T12:02:34.217Z,65.80
2023-04-04T12:05:01.638Z,64.50
2023-04-04T12:07:31.760Z,62.70
2023-04-04T12:09:58.865Z,62.20
2023-04-04T12:12:28.334Z,62.60
2023-04-04T12:15:03.416Z,62.10
2023-04-04T12:17:43.450Z,63.90
2023-04-04T12:20:11.239Z,65.00
2023-04-04T12:22:38.594Z,65.50
2023-04-04T12:25:06.255Z,65.20
2023-04-04T12:27:33.945Z,62.90
2023-04-04T12:30:01.502Z,61.70
2023-04-04T12:32:28.546Z,60.90
2023-04-04T12:35:01.239Z,59.80
2023-04-04T12:37:31.157Z,59.50
2023-04-04T12:39:58.433Z,59.50
2023-04-04T12:42:26.049Z,60.90
2023-04-04T12:44:54.652Z,62.00
2023-04-04T12:47:24.532Z,61.00
2023-04-04T12:49:57.157Z,59.70
2023-04-04T12:52:32.085Z,60.20
2023-04-04T12:55:08.503Z,59.90
2023-04-04T12:57:36.861Z,60.20
2023-04-04T13:00:07.714Z,59.50
2023-04-04T13:02:36.858Z,58.00
2023-04-04T13:05:07.121Z,59.20
2023-04-04T13:07:44.530Z,58.20
2023-04-04T13:10:14.993Z,57.60
2023-04-04T13:13:00.215Z,56.40
2023-04-04T13:15:51.762Z,56.80
2023-04-04T13:18:21.705Z,56.40
2023-04-04T13:20:49.647Z,55.80
2023-04-04T13:23:16.745Z,55.30
2023-04-04T13:25:43.850Z,56.30
2023-04-04T13:28:11.645Z,54.80
2023-04-04T13:30:43.433Z,54.40
2023-04-04T13:33:10.496Z,54.60
2023-04-04T13:35:38.795Z,55.40
2023-04-04T13:38:06.014Z,56.40
2023-04-04T13:40:32.943Z,55.70
2023-04-04T13:42:59.839Z,56.10
2023-04-04T13:45:26.786Z,56.60
2023-04-04T13:47:53.814Z,55.30
2023-04-04T13:50:22.267Z,55.00
2023-04-04T13:52:51.885Z,55.50
2023-04-04T13:55:18.800Z,55.70
2023-04-04T13:57:46.107Z,55.80
2023-04-04T14:00:14.335Z,56.20
2023-04-04T14:02:41.892Z,56.00
2023-04-04T14:05:09.082Z,54.20
2023-04-04T14:07:38.191Z,53.90
2023-04-04T14:10:05.909Z,54.50
2023-04-04T14:12:32.834Z,54.40
2023-04-04T14:14:59.711Z,55.00
2023-04-04T14:17:27.255Z,55.50
2023-04-04T14:19:54.134Z,55.40
2023-04-04T14:22:21.346Z,55.20
2023-04-04T14:24:48.261Z,54.60
2023-04-04T14:27:15.307Z,52.30
2023-04-04T14:29:42.188Z,51.90
2023-04-04T14:32:11.094Z,52.20
2023-04-04T14:34:38.002Z,52.80
2023-04-04T14:37:05.192Z,53.80
2023-04-04T14:39:33.185Z,51.60
2023-04-04T14:42:00.443Z,48.60
2023-04-04T14:44:27.450Z,48.80
2023-04-04T14:46:54.473Z,48.30
2023-04-04T14:49:21.712Z,46.90
2023-04-04T14:51:48.638Z,47.40
2023-04-04T14:54:15.529Z,47.10
2023-04-04T14:56:43.027Z,46.50
2023-04-04T14:59:09.971Z,46.00
2023-04-04T15:01:37.217Z,46.80
2023-04-04T15:04:04.136Z,47.90
2023-04-04T15:06:36.695Z,48.30
2023-04-04T15:09:06.676Z,47.60
2023-04-04T15:11:35.541Z,47.80
2023-04-04T15:14:02.457Z,48.00
2023-04-04T15:16:32.972Z,43.30
2023-04-04T15:19:00.741Z,43.90
2023-04-04T15:21:28.504Z,44.60
2023-04-04T15:23:55.525Z,44.20
2023-04-04T15:26:22.730Z,44.60
2023-04-04T15:28:49.659Z,46.00
2023-04-04T15:31:17.049Z,46.30
2023-04-04T15:33:43.961Z,46.10
2023-04-04T15:36:11.089Z,46.20
2023-04-04T15:38:38.041Z,47.40
2023-04-04T15:41:09.176Z,48.00
2023-04-04T15:43:37.028Z,48.60
2023-04-04T15:46:04.177Z,49.10
2023-04-04T15:48:31.043Z,48.70
2023-04-04T15:51:02.417Z,49.20
2023-04-04T15:53:31.025Z,49.60
2023-04-04T15:55:58.903Z,49.00
2023-04-04T15:58:26.435Z,48.90
2023-04-04T16:00:53.870Z,48.50
2023-04-04T16:03:20.877Z,48.80
2023-04-04T16:05:48.702Z,48.70
2023-04-04T16:08:15.820Z,49.60
2023-04-04T16:10:44.139Z,48.90
2023-04-04T16:13:12.724Z,49.10
2023-04-04T16:15:39.697Z,49.50
2023-04-04T16:18:07.162Z,50.10
2023-04-04T16:20:34.424Z,50.80
2023-04-04T16:23:01.335Z,51.20
2023-04-04T16:25:28.292Z,51.10
2023-04-04T16:27:55.492Z,51.00
2023-04-04T16:30:22.366Z,51.40
2023-04-04T16:32:49.516Z,51.70
2023-04-04T16:35:16.527Z,51.50
2023-04-04T16:37:43.423Z,52.00
2023-04-04T16:40:12.338Z,52.10
2023-04-04T16:42:40.582Z,52.10
2023-04-04T16:45:09.237Z,52.40
2023-04-04T16:47:36.842Z,52.50
2023-04-04T16:50:06.006Z,52.60
2023-04-04T16:52:32.996Z,52.20
2023-04-04T16:54:59.939Z,52.60
2023-04-04T16:57:27.351Z,52.40
2023-04-04T16:59:54.316Z,52.60
2023-04-04T17:02:21.310Z,52.90
2023-04-04T17:04:48.220Z,52.90
2023-04-04T17:07:15.133Z,52.90
2023-04-04T17:09:42.015Z,51.30
2023-04-04T17:12:09.368Z,51.80
2023-04-04T17:14:37.251Z,50.80
2023-04-04T17:17:05.453Z,51.30
2023-04-04T17:19:34.831Z,51.40
2023-04-04T17:22:02.256Z,51.90
2023-04-04T17:24:29.213Z,51.70
2023-04-04T17:26:59.705Z,51.80
2023-04-04T17:29:27.009Z,52.10
2023-04-04T17:31:56.115Z,51.90
2023-04-04T17:34:23.423Z,52.10
2023-04-04T17:36:51.641Z,52.30
2023-04-04T17:39:19.053Z,52.70
2023-04-04T17:41:49.313Z,52.90
2023-04-04T17:44:17.330Z,53.20
2023-04-04T17:46:45.138Z,53.40
2023-04-04T17:49:12.915Z,53.60
2023-04-04T17:51:39.826Z,53.80
2023-04-04T17:54:06.760Z,53.80
2023-04-04T17:56:33.744Z,54.10
2023-04-04T17:59:00.822Z,55.20
2023-04-04T18:01:29.414Z,55.30
2023-04-04T18:03:57.970Z,55.60
2023-04-04T18:06:25.132Z,55.70
2023-04-04T18:08:52.096Z,55.80
2023-04-04T18:11:19.027Z,56.00
2023-04-04T18:13:45.968Z,56.30
2023-04-04T18:16:13.317Z,56.40
2023-04-04T18:18:40.573Z,56.50
2023-04-04T18:21:08.430Z,56.70
2023-04-04T18:23:35.641Z,56.90
2023-04-04T18:26:02.672Z,57.20
2023-04-04T18:28:29.659Z,57.50
2023-04-04T18:30:56.626Z,57.70
2023-04-04T18:33:24.979Z,57.80
2023-04-04T18:35:51.929Z,57.90
2023-04-04T18:38:19.311Z,58.60
2023-04-04T18:40:46.570Z,58.50
2023-04-04T18:43:13.779Z,58.70
2023-04-04T18:45:41.568Z,58.90
2023-04-04T18:48:09.131Z,59.20
2023-04-04T18:50:36.563Z,59.40
2023-04-04T18:53:03.491Z,59.60
2023-04-04T18:55:30.500Z,59.80
2023-04-04T18:57:57.901Z,60.00
2023-04-04T19:00:25.548Z,60.30
2023-04-04T19:02:53.090Z,60.60
2023-04-04T19:05:24.947Z,60.90
2023-04-04T19:07:54.338Z,61.60
2023-04-04T19:10:22.137Z,61.80
2023-04-04T19:12:49.178Z,62.40
2023-04-04T19:15:16.380Z,62.40
2023-04-04T19:17:43.447Z,62.90
2023-04-04T19:20:11.770Z,63.30
2023-04-04T19:22:38.710Z,63.30
2023-04-04T19:25:06.253Z,63.30
2023-04-04T19:27:33.163Z,63.50
2023-04-04T19:30:00.059Z,63.60
2023-04-04T19:32:28.461Z,63.50
2023-04-04T19:34:56.341Z,63.80
2023-04-04T19:37:24.455Z,63.70
2023-04-04T19:39:51.358Z,64.00
2023-04-04T19:42:26.113Z,64.10
2023-04-04T19:44:53.151Z,64.70
2023-04-04T19:47:20.713Z,64.50
2023-04-04T19:49:51.328Z,64.90
2023-04-04T19:52:23.919Z,65.00
2023-04-04T19:54:50.905Z,65.40
2023-04-04T19:57:20.713Z,65.20
2023-04-04T20:00:09.235Z,65.50
2023-04-04T20:02:51.491Z,65.90
2023-04-04T20:05:32.134Z,66.00
2023-04-04T20:08:00.915Z,66.20
2023-04-04T20:10:40.171Z,66.70
2023-04-04T20:13:08.133Z,66.70
2023-04-04T20:15:47.426Z,66.40
2023-04-04T20:18:25.776Z,67.00
2023-04-04T20:21:10.859Z,67.00
2023-04-04T20:23:56.140Z,67.60
2023-04-04T20:26:51.768Z,67.80
2023-04-04T20:29:21.845Z,68.10
2023-04-04T20:32:04.065Z,67.90
2023-04-04T20:34:49.219Z,68.00
2023-04-04T20:37:22.119Z,68.40
2023-04-04T20:40:00.684Z,68.20
2023-04-04T20:42:34.030Z,68.40
2023-04-04T20:45:10.134Z,68.50
2023-04-04T20:47:49.932Z,68.80
2023-04-04T20:50:16.847Z,69.10
2023-04-04T20:53:01.590Z,68.90
2023-04-04T20:55:31.067Z,69.30
2023-04-04T20:58:18.608Z,69.50
2023-04-04T21:00:45.489Z,70.20
2023-04-04T21:03:37.372Z,70.10
2023-04-04T21:06:15.974Z,70.50
2023-04-04T21:08:52.391Z,70.60
2023-04-04T21:11:29.978Z,70.50
2023-04-04T21:13:57.358Z,70.30
2023-04-04T21:16:27.275Z,70.20
2023-04-04T21:19:00.335Z,70.50
2023-04-04T21:21:28.458Z,70.80
2023-04-04T21:24:10.591Z,70.80
2023-04-04T21:26:39.019Z,70.90
2023-04-04T21:29:16.800Z,70.60
2023-04-04T21:31:43.959Z,70.90
2023-04-04T21:34:25.722Z,71.00
2023-04-04T21:36:56.400Z,71.50
2023-04-04T21:39:30.485Z,71.40
2023-04-04T21:42:01.546Z,71.60
2023-04-04T21:44:30.189Z,71.80
2023-04-04T21:46:57.425Z,71.80
2023-04-04T21:49:25.504Z,72.00
2023-04-04T21:51:52.778Z,72.30
2023-04-04T21:54:19.878Z,72.80
2023-04-04T21:56:46.828Z,72.50
2023-04-04T21:59:13.800Z,72.40
2023-04-04T22:01:41.014Z,72.70
2023-04-04T22:04:07.985Z,72.90
2023-04-04T22:06:35.050Z,72.90
2023-04-04T22:09:03.024Z,72.80
2023-04-04T22:11:30.264Z,72.80
2023-04-04T22:14:04.181Z,72.60
2023-04-04T22:16:31.942Z,72.70
2023-04-04T22:19:01.385Z,72.60
2023-04-04T22:21:28.760Z,72.60
2023-04-04T22:24:02.314Z,72.60
2023-04-04T22:26:32.036Z,73.50
2023-04-04T22:29:04.043Z,72.80
2023-04-04T22:31:34.311Z,73.20
2023-04-04T22:34:03.154Z,73.40
2023-04-04T22:36:30.694Z,73.80
2023-04-04T22:38:58.101Z,74.10
2023-04-04T22:41:29.556Z,74.30
2023-04-04T22:43:57.762Z,74.60
2023-04-04T22:46:26.065Z,74.90
2023-04-04T22:49:04.345Z,75.00
2023-04-04T22:51:34.955Z,75.40
2023-04-04T22:54:02.926Z,76.10
2023-04-04T22:56:29.807Z,75.70
2023-04-04T22:58:56.755Z,75.80
2023-04-04T23:01:23.733Z,75.90
2023-04-04T23:03:50.667Z,76.30
2023-04-04T23:06:19.979Z,76.50
2023-04-04T23:08:47.076Z,76.60
2023-04-04T23:11:14.049Z,76.70
2023-04-04T23:13:43.186Z,77.00
2023-04-04T23:16:10.142Z,77.30
2023-04-04T23:18:37.045Z,77.50
2023-04-04T23:21:04.212Z,77.50
2023-04-04T23:23:31.298Z,77.30
2023-04-04T23:25:58.345Z,77.40
2023-04-04T23:28:29.172Z,77.50
2023-04-04T23:30:56.156Z,77.70
2023-04-04T23:33:23.066Z,77.50
2023-04-04T23:35:49.999Z,77.70
2023-04-04T23:38:16.965Z,77.80
2023-04-04T23:40:43.858Z,77.80
2023-04-04T23:43:10.777Z,77.90
2023-04-04T23:45:40.268Z,77.80
2023-04-04T23:48:07.339Z,78.10
2023-04-04T23:50:34.274Z,77.90
2023-04-04T23:53:01.158Z,78.30
2023-04-04T23:55:28.043Z,78.50
2023-04-04T23:57:56.257Z,78.50
